Accueil
METAR-TAF:

METAR-TAF

Aéroports :

Anatom, Vanuatu

latitude: 20-14-57S, longitude: 169-46-17E, altitude: 2 m

Observation

Le bulletin a été fait il y a 2 heures et 10 minutes, à 18:00 UTC
Vent 4 kt de sud-est
Température 22°C
Humidité 88%
Pression 1011 hPa
Visibilité 10 km ou plus
Nuages épars à une hauteur de 1800 ft
Ciel couvert à une hauteur de 3800 ft

METAR: NVVA 201800Z 13004KT 9999 SCT018 OVC038 22/20 Q1011 RERA

Heure: 07:10 (20:10 UTC)

Prévision

Le bulletin a été fait il y a 4 heures et 10 minutes, à 16:00 UTC
Prévision valable du 20 à 18 UTC au 21 à 18 UTC
Vent 3 kt de direction variable
Visibilité 10 km ou plus
Nuages épars à une hauteur de 2000 ft

TAF: NVVA 201600Z 2018/2118 VRB03KT 9999 SCT020

Observations et prévisions météorologiques de plus de 4000 aéroports (messages METAR et TAF).

Les stations disponibles sont représentées par des disques jaunes et rouges sur la carte.

Passer la souris dessus pour voir le nom de la station.

Cliquer dessus pour voir les observations et prévisions météorologiques.

Pour changer de carte: cliquez sur les boutons verts avec une croix noire pour zoomer, sur le bouton vert avec un tiret pour effectuer un zoom arrière, ou sur les flèches vertes pour les cartes adjacentes.


METAR-TAF: